createdAt,value
2023-05-12T00:02:10.411Z,12.20
2023-05-12T00:04:59.664Z,12.10
2023-05-12T00:07:46.863Z,12.20
2023-05-12T00:10:35.707Z,11.00
2023-05-12T00:13:24.431Z,12.20
2023-05-12T00:16:12.540Z,12.10
2023-05-12T00:19:00.280Z,14.30
2023-05-12T00:21:49.489Z,12.10
2023-05-12T00:24:37.546Z,12.10
2023-05-12T00:27:25.383Z,12.10
2023-05-12T00:30:13.908Z,12.20
2023-05-12T00:33:01.068Z,12.20
2023-05-12T00:35:48.551Z,12.10
2023-05-12T00:38:39.093Z,12.10
2023-05-12T00:41:26.520Z,12.20
2023-05-12T00:44:13.779Z,12.20
2023-05-12T00:47:01.416Z,12.30
2023-05-12T00:49:49.189Z,12.10
2023-05-12T00:52:37.642Z,12.10
2023-05-12T00:55:27.240Z,12.10
2023-05-12T00:58:15.011Z,12.10
2023-05-12T01:01:02.755Z,13.10
2023-05-12T01:03:51.336Z,12.10
2023-05-12T01:06:40.254Z,12.20
2023-05-12T01:09:29.332Z,12.10
2023-05-12T01:12:21.616Z,12.10
2023-05-12T01:15:10.213Z,13.00
2023-05-12T01:17:59.137Z,12.10
2023-05-12T01:20:46.791Z,12.20
2023-05-12T01:23:38.580Z,12.00
2023-05-12T01:26:29.935Z,12.10
2023-05-12T01:29:18.543Z,12.10
2023-05-12T01:32:06.607Z,12.10
2023-05-12T01:34:54.158Z,12.10
2023-05-12T01:37:42.427Z,12.10
2023-05-12T01:40:29.883Z,12.10
2023-05-12T01:43:22.052Z,12.00
2023-05-12T01:46:11.190Z,11.90
2023-05-12T01:49:03.401Z,12.00
2023-05-12T01:51:51.072Z,12.10
2023-05-12T01:54:45.744Z,12.10
2023-05-12T01:57:34.094Z,12.10
2023-05-12T02:00:24.899Z,12.10
2023-05-12T02:03:15.602Z,12.10
2023-05-12T02:06:03.330Z,12.10
2023-05-12T02:08:54.324Z,12.20
2023-05-12T02:11:42.831Z,12.10
2023-05-12T02:14:30.539Z,12.10
2023-05-12T02:17:25.381Z,11.40
2023-05-12T02:20:13.338Z,12.60
2023-05-12T02:23:02.414Z,11.80
2023-05-12T02:25:54.157Z,12.10
2023-05-12T02:28:42.128Z,12.10
2023-05-12T02:31:30.674Z,12.10
2023-05-12T02:34:19.880Z,12.10
2023-05-12T02:37:07.980Z,12.10
2023-05-12T02:39:55.551Z,12.10
2023-05-12T02:42:43.861Z,12.80
2023-05-12T02:45:31.443Z,12.00
2023-05-12T02:48:19.125Z,12.30
2023-05-12T02:51:08.877Z,12.10
2023-05-12T02:53:57.076Z,12.10
2023-05-12T02:56:45.151Z,13.20
2023-05-12T02:59:32.753Z,12.10
2023-05-12T03:02:22.193Z,12.10
2023-05-12T03:05:11.881Z,12.40
2023-05-12T03:08:01.508Z,10.10
2023-05-12T03:10:48.958Z,12.10
2023-05-12T03:13:36.660Z,12.00
2023-05-12T03:16:24.432Z,11.80
2023-05-12T03:19:12.522Z,11.70
2023-05-12T03:21:59.917Z,11.60
2023-05-12T03:24:52.013Z,10.20
2023-05-12T03:27:42.710Z,13.60
2023-05-12T03:30:30.514Z,11.40
2023-05-12T03:33:17.990Z,11.40
2023-05-12T03:36:05.907Z,11.10
2023-05-12T03:38:54.147Z,11.40
2023-05-12T03:41:43.752Z,11.30
2023-05-12T03:44:31.167Z,11.30
2023-05-12T03:47:19.240Z,11.20
2023-05-12T03:50:07.673Z,11.30
2023-05-12T03:52:56.312Z,11.30
2023-05-12T03:55:44.085Z,11.20
2023-05-12T03:58:36.380Z,11.20
2023-05-12T04:01:27.305Z,11.20
2023-05-12T04:04:14.941Z,11.90
2023-05-12T04:07:03.513Z,11.20
2023-05-12T04:09:53.176Z,11.20
2023-05-12T04:12:40.553Z,11.40
2023-05-12T04:15:30.295Z,11.30
2023-05-12T04:18:18.034Z,11.20
2023-05-12T04:21:05.769Z,11.30
2023-05-12T04:23:54.700Z,11.30
2023-05-12T04:26:45.527Z,11.30
2023-05-12T04:29:33.293Z,11.30
2023-05-12T04:32:23.034Z,11.20
2023-05-12T04:35:11.627Z,11.30
2023-05-12T04:38:01.547Z,11.30
2023-05-12T04:40:51.747Z,11.20
2023-05-12T04:46:31.089Z,11.20
2023-05-12T04:49:20.487Z,11.20
2023-05-12T04:52:10.551Z,11.20
2023-05-12T04:54:58.227Z,11.20
2023-05-12T04:57:46.053Z,11.10
2023-05-12T05:00:34.481Z,11.20
2023-05-12T05:03:22.698Z,11.20
2023-05-12T05:06:12.293Z,11.20
2023-05-12T05:08:59.654Z,11.10
2023-05-12T05:11:47.433Z,11.10
2023-05-12T05:14:35.251Z,11.20
2023-05-12T05:17:22.921Z,11.20
2023-05-12T05:20:18.679Z,11.10
2023-05-12T05:23:09.395Z,11.10
2023-05-12T05:25:56.953Z,11.10
2023-05-12T05:28:44.376Z,11.10
2023-05-12T05:31:33.087Z,11.00
2023-05-12T05:34:20.905Z,11.10
2023-05-12T05:37:09.373Z,11.10
2023-05-12T05:39:59.539Z,11.00
2023-05-12T05:42:47.229Z,11.10
2023-05-12T05:45:35.477Z,11.50
2023-05-12T05:48:23.604Z,11.00
2023-05-12T05:51:11.719Z,11.00
2023-05-12T05:53:59.712Z,11.10
2023-05-12T05:56:49.000Z,11.00
2023-05-12T05:59:37.047Z,12.30
2023-05-12T06:02:27.267Z,11.00
2023-05-12T06:05:15.355Z,11.20
2023-05-12T06:08:03.037Z,11.30
2023-05-12T06:10:51.753Z,11.20
2023-05-12T06:13:41.574Z,10.20
2023-05-12T06:16:29.357Z,11.00
2023-05-12T06:19:17.706Z,11.00
2023-05-12T06:22:07.903Z,11.00
2023-05-12T06:24:55.554Z,12.10
2023-05-12T06:27:46.037Z,11.00
2023-05-12T06:30:35.147Z,11.00
2023-05-12T06:33:23.181Z,11.00
2023-05-12T06:36:12.644Z,11.10
2023-05-12T06:38:59.972Z,10.20
2023-05-12T06:41:47.829Z,11.10
2023-05-12T06:44:42.312Z,11.10
2023-05-12T06:47:32.080Z,11.10
2023-05-12T06:50:23.485Z,10.50
2023-05-12T06:53:13.102Z,11.40
2023-05-12T06:56:03.339Z,11.00
2023-05-12T06:58:53.266Z,11.10
2023-05-12T07:01:43.338Z,11.20
2023-05-12T07:04:41.380Z,11.20
2023-05-12T07:07:30.143Z,12.00
2023-05-12T07:10:17.831Z,11.00
2023-05-12T07:13:05.436Z,13.00
2023-05-12T07:15:55.984Z,11.40
2023-05-12T07:18:48.671Z,11.40
2023-05-12T07:21:37.787Z,11.60
2023-05-12T07:24:28.076Z,11.50
2023-05-12T07:27:16.212Z,12.10
2023-05-12T07:30:04.965Z,11.70
2023-05-12T07:32:53.192Z,13.50
2023-05-12T07:35:41.538Z,11.80
2023-05-12T07:38:30.948Z,11.80
2023-05-12T07:41:19.133Z,12.20
2023-05-12T07:44:06.977Z,12.10
2023-05-12T07:46:56.801Z,12.10
2023-05-12T07:49:44.508Z,12.00
2023-05-12T07:52:37.134Z,12.00
2023-05-12T07:55:30.237Z,12.00
2023-05-12T07:58:17.822Z,11.30
2023-05-12T08:01:07.012Z,12.00
2023-05-12T08:03:55.517Z,12.00
2023-05-12T08:06:43.506Z,11.90
2023-05-12T08:09:34.949Z,13.00
2023-05-12T08:12:23.867Z,12.60
2023-05-12T08:15:12.720Z,12.20
2023-05-12T08:18:00.392Z,12.30
2023-05-12T08:20:48.259Z,12.50
2023-05-12T08:23:37.878Z,12.50
2023-05-12T08:26:28.865Z,12.50
2023-05-12T08:29:18.948Z,12.50
2023-05-12T08:32:14.120Z,14.10
2023-05-12T08:35:04.860Z,12.70
2023-05-12T08:37:55.002Z,12.70
2023-05-12T08:40:45.673Z,13.20
2023-05-12T08:43:37.276Z,12.70
2023-05-12T08:46:28.363Z,12.70
2023-05-12T08:49:21.207Z,12.80
2023-05-12T08:52:09.866Z,13.50
2023-05-12T08:54:58.674Z,13.70
2023-05-12T08:57:50.312Z,13.00
2023-05-12T09:00:40.644Z,12.80
2023-05-12T09:03:31.439Z,12.80
2023-05-12T09:06:19.783Z,12.80
2023-05-12T09:09:08.136Z,12.80
2023-05-12T09:11:57.912Z,12.70
2023-05-12T09:14:46.418Z,12.90
2023-05-12T09:17:34.307Z,13.10
2023-05-12T09:20:31.020Z,13.10
2023-05-12T09:23:23.429Z,13.10
2023-05-12T09:26:11.253Z,13.10
2023-05-12T09:29:07.174Z,13.00
2023-05-12T09:31:55.901Z,12.90
2023-05-12T09:34:44.601Z,12.90
2023-05-12T09:37:35.198Z,13.00
2023-05-12T09:40:26.070Z,13.10
2023-05-12T09:43:15.563Z,13.10
2023-05-12T09:46:10.326Z,13.30
2023-05-12T09:48:59.182Z,13.40
2023-05-12T09:51:55.221Z,13.40
2023-05-12T09:54:49.186Z,13.40
2023-05-12T09:57:41.179Z,13.50
2023-05-12T10:00:55.064Z,13.60
2023-05-12T10:03:47.559Z,14.10
2023-05-12T10:06:39.099Z,13.90
2023-05-12T10:09:29.332Z,14.50
2023-05-12T10:12:19.515Z,14.50
2023-05-12T10:15:11.143Z,14.30
2023-05-12T10:18:00.855Z,14.50
2023-05-12T10:20:50.122Z,14.70
2023-05-12T10:23:40.160Z,16.10
2023-05-12T10:26:29.421Z,16.30
2023-05-12T10:29:18.687Z,15.10
2023-05-12T10:32:11.528Z,15.00
2023-05-12T10:35:11.754Z,14.80
2023-05-12T10:38:02.821Z,15.00
2023-05-12T10:40:58.603Z,15.20
2023-05-12T10:44:09.819Z,15.00
2023-05-12T10:47:13.480Z,15.60
2023-05-12T10:50:03.188Z,15.30
2023-05-12T10:53:07.526Z,15.30
2023-05-12T10:56:27.043Z,15.00
2023-05-12T10:59:20.635Z,14.30
2023-05-12T11:02:17.209Z,15.00
2023-05-12T11:05:13.189Z,14.20
2023-05-12T11:08:02.823Z,14.00
2023-05-12T11:10:51.918Z,13.70
2023-05-12T11:13:40.805Z,13.60
2023-05-12T11:16:29.164Z,13.50
2023-05-12T11:19:19.758Z,13.40
2023-05-12T11:22:09.323Z,13.30
2023-05-12T11:24:57.212Z,13.50
2023-05-12T11:27:51.483Z,13.90
2023-05-12T11:30:49.406Z,13.80
2023-05-12T11:33:38.008Z,13.60
2023-05-12T11:36:26.938Z,13.50
2023-05-12T11:39:17.349Z,13.50
2023-05-12T11:42:12.833Z,13.60
2023-05-12T11:45:02.249Z,13.40
2023-05-12T11:47:50.915Z,13.70
2023-05-12T11:50:39.343Z,13.80
2023-05-12T11:53:29.607Z,13.90
2023-05-12T11:56:22.051Z,14.40
2023-05-12T11:59:09.436Z,14.30
2023-05-12T12:01:56.933Z,14.60
2023-05-12T12:04:44.540Z,14.90
2023-05-12T12:07:33.368Z,15.10
2023-05-12T12:10:22.496Z,15.10
2023-05-12T12:13:10.114Z,15.10
2023-05-12T12:16:05.163Z,15.40
2023-05-12T12:18:59.135Z,15.40
2023-05-12T12:21:47.420Z,15.40
2023-05-12T12:24:39.837Z,15.50
2023-05-12T12:27:34.109Z,15.50
2023-05-12T12:30:25.466Z,15.40
2023-05-12T12:33:15.549Z,15.70
2023-05-12T12:36:20.758Z,15.50
2023-05-12T12:39:14.014Z,15.70
2023-05-12T12:42:04.001Z,16.20
2023-05-12T12:44:53.524Z,15.90
2023-05-12T12:47:42.322Z,15.90
2023-05-12T12:50:30.863Z,15.90
2023-05-12T12:53:21.038Z,16.00
2023-05-12T12:56:09.011Z,15.50
2023-05-12T12:58:56.811Z,15.90
2023-05-12T13:01:45.715Z,15.10
2023-05-12T13:04:33.413Z,14.90
2023-05-12T13:07:20.989Z,14.80
2023-05-12T13:10:09.667Z,14.90
2023-05-12T13:12:57.467Z,16.20
2023-05-12T13:15:45.299Z,15.30
2023-05-12T13:18:33.988Z,15.40
2023-05-12T13:21:23.799Z,16.10
2023-05-12T13:24:12.005Z,15.70
2023-05-12T13:27:00.568Z,16.10
2023-05-12T13:29:48.456Z,16.50
2023-05-12T13:32:39.345Z,16.50
2023-05-12T13:35:27.420Z,16.40
2023-05-12T13:38:19.857Z,16.20
2023-05-12T13:41:10.954Z,16.10
2023-05-12T13:43:59.417Z,16.10
2023-05-12T13:46:49.456Z,16.10
2023-05-12T13:49:38.343Z,16.10
2023-05-12T13:52:26.120Z,16.40
2023-05-12T13:55:21.410Z,16.40
2023-05-12T13:58:09.665Z,17.30
2023-05-12T14:00:57.488Z,16.50
2023-05-12T14:03:45.934Z,16.50
2023-05-12T14:06:33.706Z,16.50
2023-05-12T14:09:23.004Z,16.40
2023-05-12T14:12:12.880Z,16.60
2023-05-12T14:15:16.010Z,16.90
2023-05-12T14:18:07.699Z,17.30
2023-05-12T14:20:56.250Z,17.60
2023-05-12T14:23:45.489Z,17.90
2023-05-12T14:26:33.372Z,18.30
2023-05-12T14:29:22.799Z,18.40
2023-05-12T14:32:11.071Z,18.50
2023-05-12T14:34:59.550Z,18.20
2023-05-12T14:37:48.391Z,18.20
2023-05-12T14:40:37.698Z,18.20
2023-05-12T14:43:26.533Z,18.10
2023-05-12T14:46:16.660Z,18.20
2023-05-12T14:49:10.652Z,16.80
2023-05-12T14:51:59.821Z,18.20
2023-05-12T14:54:47.755Z,18.20
2023-05-12T14:57:36.949Z,18.10
2023-05-12T15:00:24.821Z,17.90
2023-05-12T15:03:14.177Z,17.70
2023-05-12T15:06:06.543Z,17.30
2023-05-12T15:08:55.060Z,17.30
2023-05-12T15:11:45.483Z,17.10
2023-05-12T15:14:33.240Z,17.10
2023-05-12T15:17:22.362Z,17.60
2023-05-12T15:20:12.994Z,18.30
2023-05-12T15:23:04.164Z,18.70
2023-05-12T15:25:53.059Z,19.40
2023-05-12T15:28:46.146Z,19.00
2023-05-12T15:31:34.626Z,18.90
2023-05-12T15:34:22.422Z,18.60
2023-05-12T15:37:18.236Z,18.80
2023-05-12T15:40:06.984Z,18.90
2023-05-12T15:42:57.559Z,19.00
2023-05-12T15:45:48.881Z,19.10
2023-05-12T15:48:48.103Z,18.40
2023-05-12T15:51:38.524Z,19.10
2023-05-12T15:54:28.890Z,17.70
2023-05-12T15:57:18.205Z,17.00
2023-05-12T16:00:10.217Z,16.90
2023-05-12T16:03:04.375Z,16.80
2023-05-12T16:05:52.922Z,16.50
2023-05-12T16:08:41.451Z,15.90
2023-05-12T16:11:31.563Z,16.30
2023-05-12T16:14:23.435Z,15.60
2023-05-12T16:17:12.387Z,15.40
2023-05-12T16:20:00.577Z,15.30
2023-05-12T16:22:52.300Z,15.60
2023-05-12T16:25:42.193Z,16.50
2023-05-12T16:28:34.730Z,12.50
2023-05-12T16:31:25.288Z,15.20
2023-05-12T16:34:12.903Z,15.10
2023-05-12T16:37:00.343Z,15.20
2023-05-12T16:39:48.270Z,15.20
2023-05-12T16:42:37.397Z,15.30
2023-05-12T16:45:29.567Z,15.40
2023-05-12T16:48:20.662Z,15.80
2023-05-12T16:51:11.903Z,15.60
2023-05-12T16:54:14.378Z,15.80
2023-05-12T16:57:15.155Z,15.90
2023-05-12T17:00:11.853Z,15.60
2023-05-12T17:03:18.994Z,15.50
2023-05-12T17:06:10.338Z,15.80
2023-05-12T17:09:16.435Z,15.50
2023-05-12T17:12:12.343Z,15.50
2023-05-12T17:15:07.424Z,16.00
2023-05-12T17:17:56.678Z,15.40
2023-05-12T17:20:54.428Z,15.30
2023-05-12T17:23:44.803Z,15.50
2023-05-12T17:26:33.277Z,15.30
2023-05-12T17:29:21.148Z,15.20
2023-05-12T17:32:09.150Z,15.20
2023-05-12T17:34:57.707Z,13.20
2023-05-12T17:37:46.399Z,15.10
2023-05-12T17:40:36.452Z,14.90
2023-05-12T17:43:24.885Z,14.90
2023-05-12T17:46:13.392Z,14.90
2023-05-12T17:49:01.380Z,14.90
2023-05-12T17:51:50.217Z,14.80
2023-05-12T17:54:38.501Z,14.80
2023-05-12T17:57:28.176Z,14.90
2023-05-12T18:00:17.313Z,15.10
2023-05-12T18:03:05.387Z,14.90
2023-05-12T18:05:54.468Z,14.90
2023-05-12T18:08:42.203Z,15.00
2023-05-12T18:11:31.234Z,14.80
2023-05-12T18:14:21.916Z,14.80
2023-05-12T18:17:35.118Z,17.00
2023-05-12T18:20:30.171Z,14.30
2023-05-12T18:23:18.627Z,17.00
2023-05-12T18:26:09.702Z,14.70
2023-05-12T18:32:05.888Z,15.70
2023-05-12T18:34:55.409Z,16.80
2023-05-12T18:37:44.662Z,14.60
2023-05-12T18:40:33.263Z,16.20
2023-05-12T18:43:24.207Z,14.60
2023-05-12T18:46:12.612Z,14.40
2023-05-12T18:49:02.148Z,15.10
2023-05-12T18:51:49.930Z,16.30
2023-05-12T18:54:39.907Z,14.30
2023-05-12T18:57:27.959Z,15.70
2023-05-12T19:00:17.338Z,14.40
2023-05-12T19:03:07.820Z,14.40
2023-05-12T19:05:56.886Z,16.40
2023-05-12T19:08:44.257Z,14.40
2023-05-12T19:11:33.317Z,14.60
2023-05-12T19:14:21.793Z,14.50
2023-05-12T19:17:10.013Z,14.40
2023-05-12T19:20:02.374Z,14.80
2023-05-12T19:22:51.590Z,16.60
2023-05-12T19:25:44.446Z,14.40
2023-05-12T19:28:31.858Z,14.50
2023-05-12T19:31:20.557Z,14.40
2023-05-12T19:34:08.814Z,15.50
2023-05-12T19:37:00.954Z,16.20
2023-05-12T19:39:50.328Z,14.30
2023-05-12T19:42:38.766Z,14.40
2023-05-12T19:45:28.337Z,14.30
2023-05-12T19:48:16.494Z,14.30
2023-05-12T19:51:04.376Z,14.50
2023-05-12T19:53:52.331Z,14.50
2023-05-12T19:56:42.537Z,14.30
2023-05-12T19:59:33.675Z,14.20
2023-05-12T20:02:21.385Z,14.50
2023-05-12T20:05:10.028Z,14.20
2023-05-12T20:07:58.557Z,14.50
2023-05-12T20:10:46.518Z,14.30
2023-05-12T20:13:35.543Z,14.40
2023-05-12T20:16:24.077Z,16.30
2023-05-12T20:19:11.993Z,14.20
2023-05-12T20:21:59.590Z,14.30
2023-05-12T20:24:47.345Z,14.30
2023-05-12T20:27:35.908Z,14.40
2023-05-12T20:30:25.582Z,14.40
2023-05-12T20:33:13.179Z,14.60
2023-05-12T20:36:01.507Z,14.40
2023-05-12T20:38:49.917Z,14.40
2023-05-12T20:41:38.033Z,14.20
2023-05-12T20:44:26.598Z,14.50
2023-05-12T20:47:16.072Z,14.20
2023-05-12T20:50:05.753Z,14.30
2023-05-12T20:52:53.888Z,14.10
2023-05-12T20:55:43.234Z,14.20
2023-05-12T20:58:34.674Z,13.30
2023-05-12T21:01:24.576Z,14.10
2023-05-12T21:04:14.237Z,14.10
2023-05-12T21:07:06.123Z,14.00
2023-05-12T21:09:56.242Z,14.30
2023-05-12T21:12:45.458Z,14.00
2023-05-12T21:15:32.784Z,14.00
2023-05-12T21:18:20.968Z,14.10
2023-05-12T21:21:10.780Z,13.80
2023-05-12T21:23:59.018Z,15.20
2023-05-12T21:26:47.968Z,13.90
2023-05-12T21:29:35.590Z,13.80
2023-05-12T21:32:28.023Z,13.90
2023-05-12T21:35:19.098Z,13.80
2023-05-12T21:38:11.279Z,13.80
2023-05-12T21:40:58.742Z,15.00
2023-05-12T21:43:46.512Z,15.70
2023-05-12T21:46:34.593Z,13.80
2023-05-12T21:49:22.260Z,13.80
2023-05-12T21:52:10.956Z,14.40
2023-05-12T21:54:59.775Z,14.20
2023-05-12T21:57:48.211Z,13.50
2023-05-12T22:00:38.738Z,13.60
2023-05-12T22:03:27.478Z,14.90
2023-05-12T22:06:18.368Z,13.50
2023-05-12T22:09:06.947Z,13.60
2023-05-12T22:11:55.824Z,13.20
2023-05-12T22:14:43.589Z,13.40
2023-05-12T22:17:31.781Z,13.40
2023-05-12T22:20:20.207Z,13.30
2023-05-12T22:23:09.158Z,13.30
2023-05-12T22:25:57.708Z,13.50
2023-05-12T22:28:47.777Z,13.10
2023-05-12T22:31:35.306Z,13.20
2023-05-12T22:34:23.651Z,13.20
2023-05-12T22:37:11.372Z,13.10
2023-05-12T22:39:58.840Z,13.10
2023-05-12T22:42:46.574Z,12.60
2023-05-12T22:45:35.665Z,14.50
2023-05-12T22:48:23.433Z,13.20
2023-05-12T22:51:11.362Z,13.50
2023-05-12T22:53:59.679Z,14.10
2023-05-12T22:56:48.088Z,12.90
2023-05-12T22:59:36.276Z,13.30
2023-05-12T23:02:25.278Z,10.20
2023-05-12T23:05:13.188Z,12.40
2023-05-12T23:08:02.985Z,12.30
2023-05-12T23:10:50.910Z,12.50
2023-05-12T23:13:38.437Z,13.20
2023-05-12T23:16:27.091Z,12.60
2023-05-12T23:19:16.635Z,12.70
2023-05-12T23:22:04.616Z,13.20
2023-05-12T23:24:55.174Z,12.70
2023-05-12T23:27:43.954Z,12.60
2023-05-12T23:30:32.267Z,12.70
2023-05-12T23:33:20.112Z,12.40
2023-05-12T23:36:10.575Z,12.60
2023-05-12T23:38:58.424Z,12.40
2023-05-12T23:41:48.340Z,12.20
2023-05-12T23:44:36.524Z,12.20
2023-05-12T23:47:23.900Z,11.80
2023-05-12T23:50:11.933Z,12.30
2023-05-12T23:53:00.952Z,12.60
2023-05-12T23:55:48.988Z,12.20
2023-05-12T23:58:36.511Z,12.40
